sensor_id;sensor_type;location;lat;lon;timestamp;pressure;altitude;pressure_sealevel;temperature;humidity
30302;BME280;17111;52.130;5.028;2023-08-07T00:01:45;101409.72;;;21.88;55.01
30302;BME280;17111;52.130;5.028;2023-08-07T00:04:11;101409.53;;;21.89;55.33
30302;BME280;17111;52.130;5.028;2023-08-07T00:06:38;101404.47;;;21.86;55.50
30302;BME280;17111;52.130;5.028;2023-08-07T00:09:04;101407.16;;;21.86;55.29
30302;BME280;17111;52.130;5.028;2023-08-07T00:11:31;101404.47;;;21.86;55.41
30302;BME280;17111;52.130;5.028;2023-08-07T00:13:58;101417.13;;;21.86;55.25
30302;BME280;17111;52.130;5.028;2023-08-07T00:16:25;101405.50;;;21.85;nan
30302;BME280;17111;52.130;5.028;2023-08-07T00:18:52;101400.28;;;21.84;55.46
30302;BME280;17111;52.130;5.028;2023-08-07T00:21:22;101403.81;;;21.84;55.47
30302;BME280;17111;52.130;5.028;2023-08-07T00:23:49;101402.97;;;21.84;55.35
30302;BME280;17111;52.130;5.028;2023-08-07T00:26:16;101404.81;;;21.83;55.30
30302;BME280;17111;52.130;5.028;2023-08-07T00:28:43;101409.34;;;21.83;55.36
30302;BME280;17111;52.130;5.028;2023-08-07T00:31:10;101411.22;;;21.82;55.28
30302;BME280;17111;52.130;5.028;2023-08-07T00:33:36;101413.06;;;21.82;55.11
30302;BME280;17111;52.130;5.028;2023-08-07T00:36:04;101429.25;;;21.82;55.32
30302;BME280;17111;52.130;5.028;2023-08-07T00:38:31;101430.28;;;21.81;54.89
30302;BME280;17111;52.130;5.028;2023-08-07T00:40:57;101424.88;;;21.81;55.26
30302;BME280;17111;52.130;5.028;2023-08-07T00:43:26;101423.19;;;21.80;55.24
30302;BME280;17111;52.130;5.028;2023-08-07T00:45:53;101423.19;;;21.80;55.42
30302;BME280;17111;52.130;5.028;2023-08-07T00:48:19;101423.34;;;21.78;55.12
30302;BME280;17111;52.130;5.028;2023-08-07T00:50:47;101423.50;;;21.77;55.46
30302;BME280;17111;52.130;5.028;2023-08-07T00:53:14;101426.03;;;21.78;55.24
30302;BME280;17111;52.130;5.028;2023-08-07T00:55:42;101420.81;;;21.77;55.47
30302;BME280;17111;52.130;5.028;2023-08-07T00:58:08;101420.13;;;21.75;55.34
30302;BME280;17111;52.130;5.028;2023-08-07T01:00:35;101421.97;;;21.74;55.26
30302;BME280;17111;52.130;5.028;2023-08-07T01:03:05;101423.84;;;21.74;55.57
30302;BME280;17111;52.130;5.028;2023-08-07T01:05:34;101422.81;;;21.75;55.50
30302;BME280;17111;52.130;5.028;2023-08-07T01:08:01;101412.03;;;21.75;55.63
30302;BME280;17111;52.130;5.028;2023-08-07T01:13:29;101416.94;;;21.71;55.37
30302;BME280;17111;52.130;5.028;2023-08-07T01:16:03;101417.78;;;21.72;55.58
30302;BME280;17111;52.130;5.028;2023-08-07T01:18:34;101424.16;;;21.71;55.50
30302;BME280;17111;52.130;5.028;2023-08-07T01:21:03;101420.63;;;21.70;55.24
30302;BME280;17111;52.130;5.028;2023-08-07T01:23:30;101432.44;;;21.69;55.20
30302;BME280;17111;52.130;5.028;2023-08-07T01:25:56;101449.47;;;21.69;55.52
30302;BME280;17111;52.130;5.028;2023-08-07T01:28:37;101446.94;;;21.68;55.56
30302;BME280;17111;52.130;5.028;2023-08-07T01:31:08;101435.31;;;21.67;55.37
30302;BME280;17111;52.130;5.028;2023-08-07T01:33:45;101440.69;;;21.67;55.49
30302;BME280;17111;52.130;5.028;2023-08-07T01:36:14;101433.59;;;21.66;55.49
30302;BME280;17111;52.130;5.028;2023-08-07T01:38:45;101432.75;;;21.66;55.46
30302;BME280;17111;52.130;5.028;2023-08-07T01:41:13;101431.91;;;21.65;55.33
30302;BME280;17111;52.130;5.028;2023-08-07T01:43:40;101432.09;;;21.64;55.36
30302;BME280;17111;52.130;5.028;2023-08-07T01:46:07;101427.69;;;21.63;55.50
30302;BME280;17111;52.130;5.028;2023-08-07T01:48:33;101440.19;;;21.64;55.76
30302;BME280;17111;52.130;5.028;2023-08-07T01:51:00;101429.53;;;21.62;55.33
30302;BME280;17111;52.130;5.028;2023-08-07T01:53:27;101437.63;;;21.62;55.66
30302;BME280;17111;52.130;5.028;2023-08-07T01:55:53;101429.69;;;21.61;55.47
30302;BME280;17111;52.130;5.028;2023-08-07T01:58:20;101433.25;;;21.61;55.81
30302;BME280;17111;52.130;5.028;2023-08-07T02:00:46;101434.25;;;21.60;55.43
30302;BME280;17111;52.130;5.028;2023-08-07T02:03:13;101430.72;;;21.60;55.62
30302;BME280;17111;52.130;5.028;2023-08-07T02:05:40;101428.03;;;21.60;55.67
30302;BME280;17111;52.130;5.028;2023-08-07T02:08:06;101438.81;;;21.60;55.65
30302;BME280;17111;52.130;5.028;2023-08-07T02:10:33;101442.53;;;21.59;55.42
30302;BME280;17111;52.130;5.028;2023-08-07T02:13:00;101438.13;;;21.58;55.67
30302;BME280;17111;52.130;5.028;2023-08-07T02:15:27;101438.94;;;21.58;55.92
30302;BME280;17111;52.130;5.028;2023-08-07T02:17:53;101438.94;;;21.58;55.80
30302;BME280;17111;52.130;5.028;2023-08-07T02:20:20;101437.28;;;21.57;55.48
30302;BME280;17111;52.130;5.028;2023-08-07T02:22:46;101438.13;;;21.58;55.89
30302;BME280;17111;52.130;5.028;2023-08-07T02:25:13;101442.66;;;21.57;55.67
30302;BME280;17111;52.130;5.028;2023-08-07T02:27:40;101439.97;;;21.57;55.45
30302;BME280;17111;52.130;5.028;2023-08-07T02:30:06;101433.72;;;21.57;55.49
30302;BME280;17111;52.130;5.028;2023-08-07T02:32:33;101438.28;;;21.56;55.89
30302;BME280;17111;52.130;5.028;2023-08-07T02:35:00;101432.91;;;21.56;55.45
30302;BME280;17111;52.130;5.028;2023-08-07T02:37:26;101437.44;;;21.56;55.47
30302;BME280;17111;52.130;5.028;2023-08-07T02:39:53;101440.16;;;21.56;55.74
30302;BME280;17111;52.130;5.028;2023-08-07T02:42:20;101449.06;;;21.56;55.52
30302;BME280;17111;52.130;5.028;2023-08-07T02:44:46;101448.25;;;21.56;55.62
30302;BME280;17111;52.130;5.028;2023-08-07T02:47:13;101450.94;;;21.56;55.63
30302;BME280;17111;52.130;5.028;2023-08-07T02:49:40;101447.41;;;21.55;55.59
30302;BME280;17111;52.130;5.028;2023-08-07T02:52:06;101439.31;;;21.55;55.82
30302;BME280;17111;52.130;5.028;2023-08-07T02:54:33;101439.31;;;21.55;55.76
30302;BME280;17111;52.130;5.028;2023-08-07T02:57:00;101436.59;;;21.55;55.72
30302;BME280;17111;52.130;5.028;2023-08-07T02:59:26;101437.59;;;21.54;55.96
30302;BME280;17111;52.130;5.028;2023-08-07T03:01:53;101431.34;;;21.54;55.53
30302;BME280;17111;52.130;5.028;2023-08-07T03:04:19;101450.09;;;21.55;55.69
30302;BME280;17111;52.130;5.028;2023-08-07T03:06:46;101447.41;;;21.55;55.81
30302;BME280;17111;52.130;5.028;2023-08-07T03:11:39;101451.06;;;21.54;55.70
30302;BME280;17111;52.130;5.028;2023-08-07T03:14:05;101444.69;;;21.55;55.53
30302;BME280;17111;52.130;5.028;2023-08-07T03:16:32;101451.06;;;21.54;55.78
30302;BME280;17111;52.130;5.028;2023-08-07T03:18:58;101455.50;;;21.55;55.69
30302;BME280;17111;52.130;5.028;2023-08-07T03:21:25;101461.72;;;21.56;55.78
30302;BME280;17111;52.130;5.028;2023-08-07T03:23:52;101454.78;;;21.53;55.51
30302;BME280;17111;52.130;5.028;2023-08-07T03:26:18;101452.09;;;21.53;55.91
30302;BME280;17111;52.130;5.028;2023-08-07T03:28:45;101445.84;;;21.53;55.69
30302;BME280;17111;52.130;5.028;2023-08-07T03:31:14;101451.25;;;21.53;55.73
30302;BME280;17111;52.130;5.028;2023-08-07T03:33:41;101453.94;;;21.53;56.02
30302;BME280;17111;52.130;5.028;2023-08-07T03:36:07;101450.56;;;21.51;55.69
30302;BME280;17111;52.130;5.028;2023-08-07T03:38:35;101449.72;;;21.50;55.79
30302;BME280;17111;52.130;5.028;2023-08-07T03:41:02;101443.47;;;21.50;55.44
30302;BME280;17111;52.130;5.028;2023-08-07T03:43:29;101448.88;;;21.50;55.73
30302;BME280;17111;52.130;5.028;2023-08-07T03:45:56;101453.25;;;21.51;55.71
30302;BME280;17111;52.130;5.028;2023-08-07T03:48:26;101449.72;;;21.50;55.54
30302;BME280;17111;52.130;5.028;2023-08-07T03:50:53;101466.91;;;21.49;55.71
30302;BME280;17111;52.130;5.028;2023-08-07T03:53:27;101462.53;;;21.48;55.99
30302;BME280;17111;52.130;5.028;2023-08-07T03:55:54;101462.53;;;21.48;55.70
30302;BME280;17111;52.130;5.028;2023-08-07T03:58:20;101459.84;;;21.48;55.79
30302;BME280;17111;52.130;5.028;2023-08-07T04:00:47;101456.28;;;21.48;55.78
30302;BME280;17111;52.130;5.028;2023-08-07T04:03:13;101450.06;;;21.47;55.55
30302;BME280;17111;52.130;5.028;2023-08-07T04:05:40;101442.94;;;21.46;56.08
30302;BME280;17111;52.130;5.028;2023-08-07T04:08:07;101453.75;;;21.46;55.74
30302;BME280;17111;52.130;5.028;2023-08-07T04:10:33;101456.44;;;21.46;55.70
30302;BME280;17111;52.130;5.028;2023-08-07T04:13:00;101454.75;;;21.45;56.12
30302;BME280;17111;52.130;5.028;2023-08-07T04:15:26;101454.75;;;21.45;56.09
30302;BME280;17111;52.130;5.028;2023-08-07T04:17:53;101445.81;;;21.44;55.94
30302;BME280;17111;52.130;5.028;2023-08-07T04:20:20;101457.44;;;21.45;56.23
30302;BME280;17111;52.130;5.028;2023-08-07T04:22:46;101462.84;;;21.45;56.01
30302;BME280;17111;52.130;5.028;2023-08-07T04:25:13;101455.78;;;21.44;56.31
30302;BME280;17111;52.130;5.028;2023-08-07T04:27:39;101457.63;;;21.43;56.37
30302;BME280;17111;52.130;5.028;2023-08-07T04:30:06;101458.47;;;21.44;55.98
30302;BME280;17111;52.130;5.028;2023-08-07T04:32:33;101460.31;;;21.43;56.08
30302;BME280;17111;52.130;5.028;2023-08-07T04:35:00;101463.00;;;21.43;56.12
30302;BME280;17111;52.130;5.028;2023-08-07T04:37:26;101466.56;;;21.44;55.91
30302;BME280;17111;52.130;5.028;2023-08-07T04:39:53;101464.88;;;21.43;56.35
30302;BME280;17111;52.130;5.028;2023-08-07T04:42:20;101463.16;;;21.42;55.98
30302;BME280;17111;52.130;5.028;2023-08-07T04:44:47;101474.78;;;21.42;55.94
30302;BME280;17111;52.130;5.028;2023-08-07T04:47:14;101466.69;;;21.42;56.08
30302;BME280;17111;52.130;5.028;2023-08-07T04:49:40;101473.94;;;21.42;56.29
30302;BME280;17111;52.130;5.028;2023-08-07T04:52:07;101473.94;;;21.42;56.08
30302;BME280;17111;52.130;5.028;2023-08-07T04:54:46;101479.34;;;21.42;55.90
30302;BME280;17111;52.130;5.028;2023-08-07T04:57:12;101481.06;;;21.43;56.37
30302;BME280;17111;52.130;5.028;2023-08-07T04:59:39;101483.75;;;21.43;55.97
30302;BME280;17111;52.130;5.028;2023-08-07T05:02:05;101483.75;;;21.43;56.12
30302;BME280;17111;52.130;5.028;2023-08-07T05:04:32;101482.88;;;21.42;56.06
30302;BME280;17111;52.130;5.028;2023-08-07T05:06:59;101482.88;;;21.42;56.15
30302;BME280;17111;52.130;5.028;2023-08-07T05:09:25;101485.44;;;21.44;56.09
30302;BME280;17111;52.130;5.028;2023-08-07T05:11:52;101492.69;;;21.43;56.32
30302;BME280;17111;52.130;5.028;2023-08-07T05:14:19;101495.53;;;21.42;55.81
30302;BME280;17111;52.130;5.028;2023-08-07T05:16:46;101492.69;;;21.43;56.42
30302;BME280;17111;52.130;5.028;2023-08-07T05:19:12;101498.06;;;21.43;56.10
30302;BME280;17111;52.130;5.028;2023-08-07T05:21:39;101491.84;;;21.43;55.79
30302;BME280;17111;52.130;5.028;2023-08-07T05:24:05;101498.06;;;21.43;56.19
30302;BME280;17111;52.130;5.028;2023-08-07T05:26:32;101511.38;;;21.45;55.79
30302;BME280;17111;52.130;5.028;2023-08-07T05:28:59;101508.69;;;21.45;56.00
30302;BME280;17111;52.130;5.028;2023-08-07T05:31:25;101513.06;;;21.46;56.27
30302;BME280;17111;52.130;5.028;2023-08-07T05:33:54;101510.38;;;21.46;56.09
30302;BME280;17111;52.130;5.028;2023-08-07T05:36:21;101512.22;;;21.46;56.31
30302;BME280;17111;52.130;5.028;2023-08-07T05:38:48;101512.09;;;21.47;56.04
30302;BME280;17111;52.130;5.028;2023-08-07T05:41:14;101513.91;;;21.47;56.20
30302;BME280;17111;52.130;5.028;2023-08-07T05:43:41;101521.16;;;21.46;55.96
30302;BME280;17111;52.130;5.028;2023-08-07T05:46:07;101522.00;;;21.47;56.11
30302;BME280;17111;52.130;5.028;2023-08-07T05:48:34;101526.41;;;21.48;56.23
30302;BME280;17111;52.130;5.028;2023-08-07T05:51:01;101525.56;;;21.47;55.97
30302;BME280;17111;52.130;5.028;2023-08-07T05:53:28;101543.44;;;21.48;55.99
30302;BME280;17111;52.130;5.028;2023-08-07T05:55:55;101543.44;;;21.48;56.23
30302;BME280;17111;52.130;5.028;2023-08-07T05:58:22;101542.59;;;21.48;55.86
30302;BME280;17111;52.130;5.028;2023-08-07T06:00:48;101549.69;;;21.49;55.72
30302;BME280;17111;52.130;5.028;2023-08-07T06:03:15;101549.69;;;21.49;55.83
30302;BME280;17111;52.130;5.028;2023-08-07T06:05:41;101545.31;;;21.48;55.83
30302;BME280;17111;52.130;5.028;2023-08-07T06:08:08;101551.53;;;21.48;55.79
30302;BME280;17111;52.130;5.028;2023-08-07T06:10:35;101557.78;;;21.49;56.13
30302;BME280;17111;52.130;5.028;2023-08-07T06:13:01;101549.69;;;21.49;55.75
30302;BME280;17111;52.130;5.028;2023-08-07T06:15:29;101552.38;;;21.49;55.88
30302;BME280;17111;52.130;5.028;2023-08-07T06:17:56;101555.06;;;21.49;55.88
30302;BME280;17111;52.130;5.028;2023-08-07T06:20:23;101551.53;;;21.48;55.55
30302;BME280;17111;52.130;5.028;2023-08-07T06:22:49;101555.91;;;21.49;55.66
30302;BME280;17111;52.130;5.028;2023-08-07T06:25:16;101551.38;;;21.50;55.75
30302;BME280;17111;52.130;5.028;2023-08-07T06:27:42;101559.31;;;21.51;55.87
30302;BME280;17111;52.130;5.028;2023-08-07T06:30:10;101555.59;;;21.52;55.60
30302;BME280;17111;52.130;5.028;2023-08-07T06:37:30;101567.78;;;21.56;55.43
30302;BME280;17111;52.130;5.028;2023-08-07T06:39:57;101570.28;;;21.58;55.75
30302;BME280;17111;52.130;5.028;2023-08-07T06:42:24;101576.53;;;21.58;55.39
30302;BME280;17111;52.130;5.028;2023-08-07T06:44:50;101583.66;;;21.59;55.22
30302;BME280;17111;52.130;5.028;2023-08-07T06:47:17;101578.06;;;21.61;55.38
30302;BME280;17111;52.130;5.028;2023-08-07T06:49:44;101571.00;;;21.60;55.10
30302;BME280;17111;52.130;5.028;2023-08-07T06:52:10;101575.38;;;21.61;55.43
30302;BME280;17111;52.130;5.028;2023-08-07T06:54:37;101583.47;;;21.61;55.13
30302;BME280;17111;52.130;5.028;2023-08-07T06:57:03;101578.91;;;21.61;55.19
30302;BME280;17111;52.130;5.028;2023-08-07T06:59:30;101587.00;;;21.61;54.98
30302;BME280;17111;52.130;5.028;2023-08-07T07:01:56;101588.69;;;21.62;55.00
30302;BME280;17111;52.130;5.028;2023-08-07T07:04:23;101587.00;;;21.61;55.13
30302;BME280;17111;52.130;5.028;2023-08-07T07:06:50;101600.50;;;21.61;54.90
30302;BME280;17111;52.130;5.028;2023-08-07T07:09:17;101595.09;;;21.61;55.14
30302;BME280;17111;52.130;5.028;2023-08-07T07:11:43;101598.66;;;21.62;55.21
30302;BME280;17111;52.130;5.028;2023-08-07T07:14:10;101596.97;;;21.61;55.19
30302;BME280;17111;52.130;5.028;2023-08-07T07:16:37;101593.44;;;21.60;55.35
30302;BME280;17111;52.130;5.028;2023-08-07T07:19:04;101596.13;;;21.60;55.15
30302;BME280;17111;52.130;5.028;2023-08-07T07:21:34;101598.81;;;21.60;55.18
30302;BME280;17111;52.130;5.028;2023-08-07T07:24:04;101599.84;;;21.59;55.47
30302;BME280;17111;52.130;5.028;2023-08-07T07:26:31;101609.59;;;21.60;55.28
30302;BME280;17111;52.130;5.028;2023-08-07T07:28:57;101603.19;;;21.61;55.12
30302;BME280;17111;52.130;5.028;2023-08-07T07:31:24;101614.00;;;21.61;55.06
30302;BME280;17111;52.130;5.028;2023-08-07T07:33:51;101623.78;;;21.62;54.99
30302;BME280;17111;52.130;5.028;2023-08-07T07:36:18;101613.84;;;21.63;55.02
30302;BME280;17111;52.130;5.028;2023-08-07T07:38:47;101625.31;;;21.65;55.21
30302;BME280;17111;52.130;5.028;2023-08-07T07:41:15;101632.41;;;21.66;55.32
30302;BME280;17111;52.130;5.028;2023-08-07T07:43:42;101626.88;;;21.67;55.01
30302;BME280;17111;52.130;5.028;2023-08-07T07:46:09;101626.88;;;21.67;55.25
30302;BME280;17111;52.130;5.028;2023-08-07T07:48:36;101628.53;;;21.68;54.86
30302;BME280;17111;52.130;5.028;2023-08-07T07:51:03;101636.47;;;21.70;54.74
30302;BME280;17111;52.130;5.028;2023-08-07T07:53:30;101634.63;;;21.71;55.06
30302;BME280;17111;52.130;5.028;2023-08-07T07:55:57;101630.09;;;21.71;54.76
30302;BME280;17111;52.130;5.028;2023-08-07T07:58:24;101633.63;;;21.72;54.68
30302;BME280;17111;52.130;5.028;2023-08-07T08:00:50;101644.44;;;21.72;54.77
30302;BME280;17111;52.130;5.028;2023-08-07T08:03:20;101656.91;;;21.73;54.76
30302;BME280;17111;52.130;5.028;2023-08-07T08:05:51;101656.91;;;21.73;54.59
30302;BME280;17111;52.130;5.028;2023-08-07T08:08:18;101661.28;;;21.74;54.63
30302;BME280;17111;52.130;5.028;2023-08-07T08:10:45;101669.38;;;21.74;54.78
30302;BME280;17111;52.130;5.028;2023-08-07T08:13:14;101675.47;;;21.76;54.54
30302;BME280;17111;52.130;5.028;2023-08-07T08:15:42;101668.22;;;21.76;54.45
30302;BME280;17111;52.130;5.028;2023-08-07T08:18:09;101668.22;;;21.76;54.21
30302;BME280;17111;52.130;5.028;2023-08-07T08:20:36;101674.47;;;21.77;54.40
30302;BME280;17111;52.130;5.028;2023-08-07T08:23:03;101671.78;;;21.77;54.06
30302;BME280;17111;52.130;5.028;2023-08-07T08:25:31;101673.47;;;21.78;54.19
30302;BME280;17111;52.130;5.028;2023-08-07T08:27:59;101674.31;;;21.78;54.15
30302;BME280;17111;52.130;5.028;2023-08-07T08:30:27;101674.31;;;21.78;54.35
30302;BME280;17111;52.130;5.028;2023-08-07T08:32:54;101691.03;;;21.82;54.08
30302;BME280;17111;52.130;5.028;2023-08-07T08:35:21;101681.91;;;21.83;53.90
30302;BME280;17111;52.130;5.028;2023-08-07T08:37:47;101690.00;;;21.83;53.51
30302;BME280;17111;52.130;5.028;2023-08-07T08:40:14;101680.94;;;21.84;53.69
30302;BME280;17111;52.130;5.028;2023-08-07T08:42:44;101700.69;;;21.84;53.43
30302;BME280;17111;52.130;5.028;2023-08-07T08:45:13;101691.56;;;21.85;53.51
30302;BME280;17111;52.130;5.028;2023-08-07T08:47:41;101699.50;;;21.87;53.42
30302;BME280;17111;52.130;5.028;2023-08-07T08:50:13;101705.59;;;21.89;53.35
30302;BME280;17111;52.130;5.028;2023-08-07T08:52:43;101694.78;;;21.89;53.18
30302;BME280;17111;52.130;5.028;2023-08-07T08:55:11;101709.13;;;21.89;53.58
30302;BME280;17111;52.130;5.028;2023-08-07T08:57:39;101706.28;;;21.91;53.33
30302;BME280;17111;52.130;5.028;2023-08-07T09:00:07;101723.34;;;21.91;53.23
30302;BME280;17111;52.130;5.028;2023-08-07T09:02:43;101723.34;;;21.91;53.05
30302;BME280;17111;52.130;5.028;2023-08-07T09:05:10;101723.34;;;21.91;53.23
30302;BME280;17111;52.130;5.028;2023-08-07T09:07:37;101722.50;;;21.91;53.31
30302;BME280;17111;52.130;5.028;2023-08-07T09:10:04;101724.31;;;21.90;53.06
30302;BME280;17111;52.130;5.028;2023-08-07T09:12:32;101726.16;;;21.90;53.05
30302;BME280;17111;52.130;5.028;2023-08-07T09:15:02;101723.63;;;21.88;53.11
30302;BME280;17111;52.130;5.028;2023-08-07T09:17:33;101721.78;;;21.89;53.15
30302;BME280;17111;52.130;5.028;2023-08-07T09:20:01;101735.28;;;21.89;53.28
30302;BME280;17111;52.130;5.028;2023-08-07T09:22:29;101736.97;;;21.90;53.27
30302;BME280;17111;52.130;5.028;2023-08-07T09:24:56;101736.00;;;21.91;53.37
30302;BME280;17111;52.130;5.028;2023-08-07T09:27:26;101734.97;;;21.92;53.05
30302;BME280;17111;52.130;5.028;2023-08-07T09:29:54;101732.28;;;21.92;53.43
30302;BME280;17111;52.130;5.028;2023-08-07T09:32:22;101724.00;;;21.93;53.16
30302;BME280;17111;52.130;5.028;2023-08-07T09:34:51;101714.75;;;21.96;53.26
30302;BME280;17111;52.130;5.028;2023-08-07T09:37:23;101721.84;;;21.97;53.29
30302;BME280;17111;52.130;5.028;2023-08-07T09:39:51;101727.06;;;21.99;53.27
30302;BME280;17111;52.130;5.028;2023-08-07T09:42:17;101726.09;;;22.00;53.08
30302;BME280;17111;52.130;5.028;2023-08-07T09:44:44;101733.19;;;22.01;53.15
30302;BME280;17111;52.130;5.028;2023-08-07T09:47:14;101733.84;;;22.03;53.22
30302;BME280;17111;52.130;5.028;2023-08-07T09:49:42;101735.69;;;22.02;52.99
30302;BME280;17111;52.130;5.028;2023-08-07T09:52:10;101744.66;;;22.03;53.13
30302;BME280;17111;52.130;5.028;2023-08-07T09:54:37;101748.22;;;22.03;52.93
30302;BME280;17111;52.130;5.028;2023-08-07T09:57:04;101759.03;;;22.03;52.74
30302;BME280;17111;52.130;5.028;2023-08-07T09:59:34;101754.47;;;22.04;53.02
30302;BME280;17111;52.130;5.028;2023-08-07T10:02:02;101754.47;;;22.04;52.83
30302;BME280;17111;52.130;5.028;2023-08-07T10:04:30;101751.75;;;22.04;52.73
30302;BME280;17111;52.130;5.028;2023-08-07T10:06:57;101754.47;;;22.04;52.90
30302;BME280;17111;52.130;5.028;2023-08-07T10:09:26;101754.47;;;22.04;52.70
30302;BME280;17111;52.130;5.028;2023-08-07T10:11:54;101760.72;;;22.04;52.83
30302;BME280;17111;52.130;5.028;2023-08-07T10:14:21;101758.00;;;22.04;52.83
30302;BME280;17111;52.130;5.028;2023-08-07T10:16:49;101764.25;;;22.05;52.75
30302;BME280;17111;52.130;5.028;2023-08-07T10:19:15;101759.69;;;22.05;52.98
30302;BME280;17111;52.130;5.028;2023-08-07T10:21:43;101767.63;;;22.07;52.89
30302;BME280;17111;52.130;5.028;2023-08-07T10:24:10;101766.78;;;22.06;52.71
30302;BME280;17111;52.130;5.028;2023-08-07T10:26:43;101774.88;;;22.06;52.81
30302;BME280;17111;52.130;5.028;2023-08-07T10:29:13;101785.53;;;22.08;53.13
30302;BME280;17111;52.130;5.028;2023-08-07T10:31:42;101774.75;;;22.08;52.61
30302;BME280;17111;52.130;5.028;2023-08-07T10:34:09;101767.47;;;22.08;52.55
30302;BME280;17111;52.130;5.028;2023-08-07T10:36:37;101791.78;;;22.08;52.39
30302;BME280;17111;52.130;5.028;2023-08-07T10:39:07;101785.38;;;22.09;52.22
30302;BME280;17111;52.130;5.028;2023-08-07T10:41:39;101785.53;;;22.08;52.52
30302;BME280;17111;52.130;5.028;2023-08-07T10:44:25;101785.38;;;22.09;52.27
30302;BME280;17111;52.130;5.028;2023-08-07T10:46:54;101778.97;;;22.10;52.48
30302;BME280;17111;52.130;5.028;2023-08-07T10:49:38;101781.53;;;22.12;52.45
30302;BME280;17111;52.130;5.028;2023-08-07T10:52:12;101778.81;;;22.12;52.23
30302;BME280;17111;52.130;5.028;2023-08-07T10:54:45;101779.66;;;22.12;52.17
30302;BME280;17111;52.130;5.028;2023-08-07T10:57:13;101793.03;;;22.14;52.23
30302;BME280;17111;52.130;5.028;2023-08-07T11:02:30;101792.88;;;22.15;52.05
30302;BME280;17111;52.130;5.028;2023-08-07T11:04:57;101784.63;;;22.17;51.94
30302;BME280;17111;52.130;5.028;2023-08-07T11:07:27;101795.41;;;22.17;51.86
30302;BME280;17111;52.130;5.028;2023-08-07T11:09:55;101797.94;;;22.18;51.81
30302;BME280;17111;52.130;5.028;2023-08-07T11:12:29;101795.94;;;22.21;51.80
30302;BME280;17111;52.130;5.028;2023-08-07T11:14:55;101796.78;;;22.21;51.92
30302;BME280;17111;52.130;5.028;2023-08-07T11:17:26;101794.94;;;22.22;51.92
30302;BME280;17111;52.130;5.028;2023-08-07T11:19:54;101796.63;;;22.23;51.79
30302;BME280;17111;52.130;5.028;2023-08-07T11:22:21;101799.31;;;22.23;51.75
30302;BME280;17111;52.130;5.028;2023-08-07T11:24:50;101789.91;;;22.27;51.43
30302;BME280;17111;52.130;5.028;2023-08-07T11:27:17;101789.59;;;22.30;51.81
30302;BME280;17111;52.130;5.028;2023-08-07T11:29:48;101793.66;;;22.34;51.82
30302;BME280;17111;52.130;5.028;2023-08-07T11:32:15;101779.84;;;22.37;51.42
30302;BME280;17111;52.130;5.028;2023-08-07T11:34:49;101794.75;;;22.41;51.38
30302;BME280;17111;52.130;5.028;2023-08-07T11:37:17;101783.94;;;22.41;51.26
30302;BME280;17111;52.130;5.028;2023-08-07T11:39:44;101793.41;;;22.45;51.24
30302;BME280;17111;52.130;5.028;2023-08-07T11:42:11;101794.97;;;22.48;51.55
30302;BME280;17111;52.130;5.028;2023-08-07T11:44:37;101798.84;;;22.53;50.98
30302;BME280;17111;52.130;5.028;2023-08-07T11:47:05;101799.69;;;22.54;51.34
30302;BME280;17111;52.130;5.028;2023-08-07T11:49:32;101798.69;;;22.55;50.96
30302;BME280;17111;52.130;5.028;2023-08-07T11:51:59;101796.16;;;22.53;50.93
30302;BME280;17111;52.130;5.028;2023-08-07T11:54:26;101800.53;;;22.54;50.86
30302;BME280;17111;52.130;5.028;2023-08-07T11:56:52;101807.66;;;22.55;51.03
30302;BME280;17111;52.130;5.028;2023-08-07T11:59:19;101803.78;;;22.58;51.09
30302;BME280;17111;52.130;5.028;2023-08-07T12:01:46;101809.34;;;22.56;50.69
30302;BME280;17111;52.130;5.028;2023-08-07T12:04:12;101813.06;;;22.55;50.66
30302;BME280;17111;52.130;5.028;2023-08-07T12:06:52;101799.69;;;22.54;50.68
30302;BME280;17111;52.130;5.028;2023-08-07T12:09:20;101802.25;;;22.55;50.54
30302;BME280;17111;52.130;5.028;2023-08-07T12:11:47;101805.09;;;22.54;50.76
30302;BME280;17111;52.130;5.028;2023-08-07T12:14:14;101807.13;;;22.52;50.56
30302;BME280;17111;52.130;5.028;2023-08-07T12:16:45;101808.97;;;22.51;50.86
30302;BME280;17111;52.130;5.028;2023-08-07T12:19:14;101803.94;;;22.56;50.19
30302;BME280;17111;52.130;5.028;2023-08-07T12:21:42;101801.78;;;22.60;50.41
30302;BME280;17111;52.130;5.028;2023-08-07T12:24:10;101805.47;;;22.59;50.59
30302;BME280;17111;52.130;5.028;2023-08-07T12:26:36;101814.94;;;22.63;51.04
30302;BME280;17111;52.130;5.028;2023-08-07T12:29:03;101807.38;;;22.66;50.48
30302;BME280;17111;52.130;5.028;2023-08-07T12:31:29;101808.06;;;22.69;50.59
30302;BME280;17111;52.130;5.028;2023-08-07T12:33:56;101802.97;;;22.65;50.73
30302;BME280;17111;52.130;5.028;2023-08-07T12:36:43;101800.81;;;22.69;50.55
30302;BME280;17111;52.130;5.028;2023-08-07T12:39:09;101800.50;;;22.72;50.85
30302;BME280;17111;52.130;5.028;2023-08-07T12:41:36;101809.59;;;22.71;50.64
30302;BME280;17111;52.130;5.028;2023-08-07T12:44:05;101803.84;;;22.74;50.36
30302;BME280;17111;52.130;5.028;2023-08-07T12:46:32;101815.19;;;22.78;50.15
30302;BME280;17111;52.130;5.028;2023-08-07T12:49:02;101804.06;;;22.81;49.98
30302;BME280;17111;52.130;5.028;2023-08-07T12:51:29;101814.56;;;22.84;49.95
30302;BME280;17111;52.130;5.028;2023-08-07T12:53:55;101794.63;;;22.85;50.14
30302;BME280;17111;52.130;5.028;2023-08-07T12:56:22;101801.06;;;22.84;50.05
30302;BME280;17111;52.130;5.028;2023-08-07T12:58:49;101801.91;;;22.84;50.17
30302;BME280;17111;52.130;5.028;2023-08-07T13:01:16;101795.66;;;22.84;50.20
30302;BME280;17111;52.130;5.028;2023-08-07T13:03:43;101800.19;;;22.83;49.78
30302;BME280;17111;52.130;5.028;2023-08-07T13:06:10;101805.75;;;22.82;49.93